Sunday, December 17, 2017, 4:34 PM EST
Back to Local

KBLM, Belmar-farmingdale

Location: Farmingdale, NJ, United States Lat: 40.183
Local Time: 4:34 PM EST (21:34 GMT) Lon: -74.133
Time Zone: US/Eastern Elev: 157 ft

Show me the last for .
Show Decoded

2017-12-17 15:56 METAR KBLM 172056Z AUTO 04004KT 10SM CLR 03/M01 A3024 RMK AO2 SLP245 6////
                 T00331006 55004 =
2017-12-17 14:56 METAR KBLM 171956Z AUTO 07005KT 10SM CLR 03/M01 A3023 RMK AO2 SLP242 T00331006 =
2017-12-17 13:56 METAR KBLM 171856Z AUTO 09004KT 10SM CLR 04/M01 A3024 RMK AO2 SLP245 T00391011 =
2017-12-17 12:56 METAR KBLM 171756Z AUTO 11005KT 10SM CLR 04/M01 A3025 RMK AO2 SLP249 T00391011
                 10050 21022 58015 =
2017-12-17 11:56 METAR KBLM 171656Z AUTO 00000KT 10SM CLR 04/M03 A3028 RMK AO2 SLP260 T00391028 =
2017-12-17 10:56 METAR KBLM 171556Z AUTO 04006KT 10SM OVC050 03/M03 A3028 RMK AO2 SLP260
                 T00281028 =
2017-12-17 09:56 METAR KBLM 171456Z AUTO 04004KT 10SM OVC050 02/M03 A3030 RMK AO2 SLP264
                 T00171033 53007 FZRANO =
2017-12-17 08:56 METAR KBLM 171356Z AUTO 02004KT 10SM OVC050 01/M04 A3028 RMK AO2 SLP261
                 T00061039 FZRANO =
2017-12-17 07:56 METAR KBLM 171256Z AUTO 36003KT 10SM SCT050 M01/M04 A3028 RMK AO2 SLP259
                 T10061039 FZRANO =
2017-12-17 06:56 METAR KBLM 171156Z AUTO 33003KT 10SM CLR M02/M04 A3027 RMK AO2 SLP258 6////
                 7//// T10221044 10017 21022 53005 FZRANO =
2017-12-17 05:56 METAR KBLM 171056Z AUTO 02003KT 10SM CLR 00/M04 A3026 RMK AO2 SLP251 T00001039
                 FZRANO =
2017-12-17 04:56 METAR KBLM 170956Z AUTO 02004KT 10SM OVC070 01/M04 A3026 RMK AO2 SLP251
                 T00061044 FZRANO =
2017-12-17 03:56 METAR KBLM 170856Z AUTO 35003KT 10SM OVC055 01/M04 A3026 RMK AO2 SLP252 6////
                 T00111039 51016 FZRANO =
2017-12-17 02:56 METAR KBLM 170756Z AUTO 01003KT 10SM OVC055 01/M04 A3024 RMK AO2 SLP247
                 T00111039 FZRANO =
2017-12-17 01:56 METAR KBLM 170656Z AUTO 36004KT 10SM SCT055 OVC075 01/M04 A3023 RMK AO2 SLP244
                 T00111039 FZRANO =
2017-12-17 00:56 METAR KBLM 170556Z AUTO 34003KT 10SM OVC055 02/M03 A3021 RMK AO2 SLP236 6////
                 T00171033 10033 20017 51013 FZRANO =
2017-12-16 23:56 METAR KBLM 170456Z AUTO 01004KT 10SM BKN049 OVC060 02/M03 A3021 RMK AO2 SLP236
                 T00221033 400391078 FZRANO =
2017-12-16 22:56 METAR KBLM 170356Z AUTO 33003KT 10SM BKN049 OVC055 02/M03 A3020 RMK AO2 SLP231
                 T00221033 FZRANO =
2017-12-16 21:56 METAR KBLM 170256Z AUTO 23004KT 10SM BKN048 OVC060 03/M04 A3018 RMK AO2 SLP224
                 T00281039 51022 =
2017-12-16 20:56 METAR KBLM 170156Z AUTO 22005KT 10SM OVC048 03/M04 A3016 RMK AO2 SLP219
                 T00281044 =
2017-12-16 19:56 METAR KBLM 170056Z AUTO 22006KT 10SM OVC050 03/M04 A3015 RMK AO2 SLP215
                 T00331044 =
2017-12-16 18:56 METAR KBLM 162356Z AUTO 24006KT 10SM OVC060 03/M05 A3011 RMK AO2 SLP202 6////
                 T00331050 10039 20028 53024 =
2017-12-16 17:56 METAR KBLM 162256Z AUTO 23009KT 10SM OVC055 04/M05 A3008 RMK AO2 SLP193
                 T00391050 =
2017-12-16 16:56 METAR KBLM 162156Z AUTO 23007KT 10SM FEW049 OVC060 03/M05 A3006 RMK AO2 SLP183
                 T00331050 =

Support USWX by starting your Amazon purchase here.